Time;durP1;ratioP1;P1;durP2;ratioP2;P2;SDS_P1;SDS_P2;PMS_P1;PMS_P2;Temp;Humidity;BMP_temperature;BMP_pressure;BME280_temperature;BME280_humidity;BME280_pressure;Samples;Min_cycle;Max_cycle;Signal;HPM_P1;HPM_P2
2021/11/24 00:03:00;;;;;;;8.93;7.93;;;3.70;39.10;;;;;;10422334;28;20241;-71
2021/11/24 00:08:04;;;;;;;8.43;7.63;;;3.60;38.90;;;;;;10420386;28;20258;-71
2021/11/24 00:13:08;;;;;;;9.07;8.07;;;3.60;39.10;;;;;;10423032;28;20228;-72
2021/11/24 00:18:13;;;;;;;8.77;7.87;;;3.50;39.00;;;;;;10423789;28;20231;-71
2021/11/24 00:23:16;;;;;;;8.00;7.30;;;3.50;38.90;;;;;;10420936;28;20240;-72
2021/11/24 00:28:19;;;;;;;8.83;7.43;;;3.40;38.90;;;;;;10418336;28;20229;-71
2021/11/24 00:33:23;;;;;;;8.40;7.50;;;3.40;38.90;;;;;;10418778;28;20237;-71
2021/11/24 00:38:27;;;;;;;7.93;7.13;;;3.30;38.80;;;;;;10428728;28;20233;-71
2021/11/24 00:43:30;;;;;;;6.70;6.10;;;3.30;38.90;;;;;;10417378;28;20225;-71
2021/11/24 00:48:35;;;;;;;8.03;7.33;;;3.30;38.80;;;;;;10431957;28;20697;-71
2021/11/24 00:53:38;;;;;;;7.90;7.13;;;3.20;38.40;;;;;;10423826;28;20236;-71
2021/11/24 00:58:43;;;;;;;7.83;7.03;;;3.10;38.50;;;;;;10415450;28;20617;-72
2021/11/24 01:03:48;;;;;;;7.17;6.47;;;3.00;39.40;;;;;;10422912;28;20225;-72
2021/11/24 01:08:53;;;;;;;7.87;7.00;;;3.10;38.90;;;;;;10419779;28;20709;-71
2021/11/24 01:13:56;;;;;;;8.97;8.03;;;3.00;38.90;;;;;;10420567;28;20234;-71
2021/11/24 01:19:01;;;;;;;9.67;8.07;;;2.90;38.90;;;;;;10417983;28;20598;-71
2021/11/24 01:24:05;;;;;;;9.27;7.97;;;2.70;38.80;;;;;;10419262;28;20502;-71
2021/11/24 01:29:08;;;;;;;12.10;9.60;;;2.90;39.10;;;;;;10420310;28;20236;-72
2021/11/24 01:34:13;;;;;;;10.33;8.33;;;2.90;39.00;;;;;;10418643;28;20784;-71
2021/11/24 01:39:16;;;;;;;11.77;9.07;;;2.90;39.00;;;;;;10422085;28;20254;-71
2021/11/24 01:44:21;;;;;;;9.17;7.63;;;3.00;39.10;;;;;;10419075;28;20345;-71
2021/11/24 01:49:29;;;;;;;13.33;10.53;;;2.80;38.80;;;;;;10419145;28;20243;-71
2021/11/24 01:54:33;;;;;;;17.07;11.23;;;2.90;38.80;;;;;;10419194;28;20236;-76
2021/11/24 01:59:36;;;;;;;13.70;10.70;;;2.70;38.80;;;;;;10421024;28;20773;-76
2021/11/24 02:04:41;;;;;;;10.13;7.97;;;2.70;38.90;;;;;;10420359;28;20620;-76
2021/11/24 02:09:44;;;;;;;9.83;8.73;;;2.70;38.90;;;;;;10412510;28;20233;-76
2021/11/24 02:14:48;;;;;;;11.77;9.03;;;2.60;38.80;;;;;;10420418;28;20235;-76
2021/11/24 02:19:52;;;;;;;10.03;8.53;;;2.60;38.70;;;;;;10414788;28;20570;-76
2021/11/24 02:24:57;;;;;;;8.87;7.60;;;2.50;38.60;;;;;;10417152;28;20246;-76
2021/11/24 02:30:00;;;;;;;8.07;7.27;;;2.50;38.70;;;;;;10420085;28;20237;-76
2021/11/24 02:35:03;;;;;;;7.97;6.53;;;2.50;38.80;;;;;;10417253;28;20229;-75
2021/11/24 02:40:09;;;;;;;7.77;6.77;;;2.40;38.90;;;;;;10423349;28;20229;-75
2021/11/24 02:45:13;;;;;;;7.80;6.67;;;2.40;38.80;;;;;;10422549;28;20729;-75
2021/11/24 02:50:16;;;;;;;8.93;6.73;;;2.40;38.90;;;;;;10426094;28;20231;-76
2021/11/24 02:55:26;;;;;;;6.83;5.70;;;2.30;38.80;;;;;;10428932;28;20259;-75
2021/11/24 03:00:32;;;;;;;7.37;6.67;;;2.30;39.00;;;;;;10423326;28;20223;-75
2021/11/24 03:05:38;;;;;;;7.73;6.93;;;2.30;39.00;;;;;;10426318;28;20230;-75
2021/11/24 03:10:43;;;;;;;7.87;6.10;;;2.30;38.80;;;;;;10429973;28;20952;-75
2021/11/24 03:15:46;;;;;;;8.07;6.93;;;2.30;38.60;;;;;;10426401;28;20346;-75
2021/11/24 03:20:49;;;;;;;9.00;6.90;;;2.20;38.70;;;;;;10423857;28;20592;-75
2021/11/24 03:25:54;;;;;;;7.27;6.57;;;2.20;38.80;;;;;;10422239;28;20225;-76
2021/11/24 03:30:57;;;;;;;7.17;6.27;;;2.10;38.80;;;;;;10429345;28;20339;-75
2021/11/24 03:36:00;;;;;;;6.97;6.23;;;2.10;38.80;;;;;;10426242;28;20224;-75
2021/11/24 03:41:05;;;;;;;6.27;5.67;;;2.20;38.80;;;;;;10421965;28;20232;-74
2021/11/24 03:46:09;;;;;;;7.70;6.57;;;2.10;38.60;;;;;;10426342;28;20287;-75
2021/11/24 03:51:12;;;;;;;5.90;5.30;;;2.00;38.70;;;;;;10425186;28;20375;-75
2021/11/24 03:56:17;;;;;;;6.40;5.80;;;2.00;38.70;;;;;;10413830;28;20599;-75
2021/11/24 04:01:20;;;;;;;6.47;5.87;;;2.00;38.60;;;;;;10424343;28;20233;-75
2021/11/24 04:06:25;;;;;;;7.67;6.23;;;2.00;38.70;;;;;;10421774;28;20676;-76
2021/11/24 04:11:30;;;;;;;6.87;6.20;;;1.90;38.80;;;;;;10426785;28;20225;-75
2021/11/24 04:16:33;;;;;;;8.07;6.10;;;1.90;38.70;;;;;;10425650;28;20229;-75
2021/11/24 04:21:37;;;;;;;7.43;6.30;;;1.90;38.70;;;;;;10419957;28;20747;-76
2021/11/24 04:26:42;;;;;;;7.57;6.37;;;1.80;38.60;;;;;;10423454;28;20239;-75
2021/11/24 04:31:45;;;;;;;6.20;5.50;;;1.80;38.60;;;;;;10426373;28;20802;-75
2021/11/24 04:36:48;;;;;;;5.63;5.07;;;1.90;38.80;;;;;;10418728;28;20236;-75
2021/11/24 04:41:53;;;;;;;7.37;6.63;;;1.80;38.80;;;;;;10424087;28;20218;-76
2021/11/24 04:46:57;;;;;;;6.87;6.20;;;1.80;38.60;;;;;;10423209;28;20261;-75
2021/11/24 04:52:00;;;;;;;6.37;5.23;;;1.80;38.70;;;;;;10423495;28;20233;-75
2021/11/24 04:57:12;;;;;;;7.77;5.83;;;1.70;38.80;;;;;;10416850;28;20292;-76
2021/11/24 05:02:16;;;;;;;6.40;5.80;;;1.70;38.60;;;;;;10423761;28;20233;-76
2021/11/24 05:07:21;;;;;;;6.00;5.50;;;1.60;38.70;;;;;;10423345;28;20631;-75
2021/11/24 05:12:38;;;;;;;6.23;5.53;;;1.60;38.80;;;;;;10428048;28;20652;-76
2021/11/24 05:17:45;;;;;;;7.90;5.53;;;1.60;38.80;;;;;;10426669;28;20240;-75
2021/11/24 05:22:49;;;;;;;6.20;5.60;;;1.50;38.80;;;;;;10418538;28;20225;-75
2021/11/24 05:27:54;;;;;;;9.00;6.63;;;1.50;38.80;;;;;;10424261;28;20240;-75
2021/11/24 05:32:57;;;;;;;8.40;7.03;;;1.50;38.80;;;;;;10425489;28;20240;-75
2021/11/24 05:38:00;;;;;;;9.40;7.67;;;1.50;38.80;;;;;;10425228;28;20253;-75
2021/11/24 05:43:06;;;;;;;9.40;7.60;;;1.50;38.90;;;;;;10426707;28;22225;-75
2021/11/24 05:48:11;;;;;;;8.57;7.20;;;1.50;39.00;;;;;;10419154;28;22884;-75
2021/11/24 05:53:18;;;;;;;9.23;7.00;;;1.50;38.90;;;;;;10426904;28;20620;-74
2021/11/24 05:58:23;;;;;;;7.60;6.67;;;1.50;38.90;;;;;;10419880;28;20233;-76
2021/11/24 06:03:26;;;;;;;7.77;6.27;;;1.50;38.80;;;;;;10420575;28;20729;-75
2021/11/24 06:08:30;;;;;;;6.43;5.63;;;1.50;38.90;;;;;;10418040;28;20604;-75
2021/11/24 06:13:34;;;;;;;6.43;5.83;;;1.50;38.80;;;;;;10422659;28;20233;-75
2021/11/24 06:18:37;;;;;;;8.17;6.40;;;1.50;38.80;;;;;;10427572;28;20487;-75
2021/11/24 06:23:41;;;;;;;8.23;5.80;;;1.40;38.80;;;;;;10430528;28;20229;-75
2021/11/24 06:28:46;;;;;;;6.27;5.13;;;1.40;39.30;;;;;;10433261;28;20229;-75
2021/11/24 06:33:51;;;;;;;9.37;6.87;;;1.40;39.10;;;;;;10432276;28;20477;-75
2021/11/24 06:38:55;;;;;;;9.13;6.77;;;1.40;38.80;;;;;;10429617;28;20225;-76
2021/11/24 06:44:00;;;;;;;9.50;7.17;;;1.30;38.60;;;;;;10435163;28;20780;-77
2021/11/24 06:49:03;;;;;;;7.77;6.97;;;1.20;38.80;;;;;;10422284;28;20229;-75
2021/11/24 06:54:07;;;;;;;7.10;6.33;;;1.10;38.90;;;;;;10433201;28;20238;-75
2021/11/24 06:59:11;;;;;;;10.27;7.23;;;1.10;39.30;;;;;;10427289;28;20232;-75
2021/11/24 07:04:14;;;;;;;8.87;6.70;;;1.10;39.50;;;;;;10432200;28;20237;-75
2021/11/24 07:09:17;;;;;;;9.43;7.57;;;1.10;39.50;;;;;;10431273;28;20244;-75
2021/11/24 07:14:22;;;;;;;9.37;7.97;;;1.10;39.50;;;;;;10431756;28;20242;-76
2021/11/24 07:19:25;;;;;;;8.43;6.90;;;1.10;39.60;;;;;;10434947;28;20236;-75
2021/11/24 07:24:29;;;;;;;10.23;7.00;;;1.20;39.80;;;;;;10420933;28;20234;-75
2021/11/24 07:29:34;;;;;;;9.30;6.90;;;1.20;40.70;;;;;;10417980;28;20234;-75
2021/11/24 07:34:37;;;;;;;10.80;6.97;;;1.30;40.30;;;;;;10425702;28;20236;-75
2021/11/24 07:39:40;;;;;;;7.63;6.87;;;1.30;40.20;;;;;;10424146;28;20312;-75
2021/11/24 07:44:45;;;;;;;7.43;6.60;;;1.40;40.50;;;;;;10424575;28;20232;-75
2021/11/24 07:49:48;;;;;;;9.07;7.87;;;1.50;40.90;;;;;;10422758;28;20703;-75
2021/11/24 07:54:52;;;;;;;10.03;7.90;;;1.50;40.90;;;;;;10424776;28;20675;-73
2021/11/24 07:59:56;;;;;;;9.33;8.10;;;1.60;41.10;;;;;;10422518;28;20233;-73
2021/11/24 08:04:59;;;;;;;10.97;9.07;;;1.70;41.70;;;;;;10421858;28;20233;-72
2021/11/24 08:10:21;;;;;;;10.70;9.37;;;1.80;41.80;;;;;;10422388;28;20356;-72
2021/11/24 08:15:26;;;;;;;10.03;8.70;;;2.00;42.30;;;;;;10421146;28;20234;-73
2021/11/24 08:20:29;;;;;;;11.07;9.37;;;2.00;42.60;;;;;;10424716;28;20240;-73
2021/11/24 08:25:32;;;;;;;10.90;9.37;;;2.10;42.60;;;;;;10421714;28;20238;-74
2021/11/24 08:30:37;;;;;;;10.63;9.10;;;2.30;42.70;;;;;;10413555;28;20230;-73
2021/11/24 08:35:41;;;;;;;10.50;9.40;;;2.40;43.10;;;;;;10421005;28;20590;-75
2021/11/24 08:40:44;;;;;;;9.53;7.87;;;2.50;43.00;;;;;;10421305;28;20238;-73
2021/11/24 08:45:49;;;;;;;10.80;9.30;;;2.60;43.40;;;;;;10423754;28;20252;-73
2021/11/24 08:50:52;;;;;;;10.47;9.23;;;2.70;43.70;;;;;;10419285;28;20594;-72
2021/11/24 08:55:55;;;;;;;11.07;8.87;;;2.90;43.40;;;;;;10420124;28;20233;-72
2021/11/24 09:01:00;;;;;;;11.67;8.40;;;3.00;43.60;;;;;;10425583;28;20601;-72
2021/11/24 09:06:06;;;;;;;10.73;9.27;;;3.10;43.70;;;;;;10420587;28;20595;-73
2021/11/24 09:11:09;;;;;;;12.00;9.63;;;3.20;43.50;;;;;;10422769;28;20233;-73
2021/11/24 09:16:14;;;;;;;12.63;9.90;;;3.30;43.50;;;;;;10419632;28;20563;-73
2021/11/24 09:21:19;;;;;;;11.77;9.33;;;3.40;43.80;;;;;;10419418;28;20248;-73
2021/11/24 09:26:30;;;;;;;11.63;9.73;;;3.50;43.60;;;;;;10419192;28;20320;-73
2021/11/24 09:31:35;;;;;;;11.40;9.60;;;3.60;43.60;;;;;;10420979;28;20244;-73
2021/11/24 09:36:41;;;;;;;12.53;10.43;;;3.70;43.90;;;;;;10422407;28;20229;-72
2021/11/24 09:41:46;;;;;;;12.60;10.33;;;3.70;43.60;;;;;;10418613;28;20274;-72
2021/11/24 09:46:52;;;;;;;14.33;10.73;;;3.80;43.90;;;;;;10422551;28;20283;-72
2021/11/24 09:51:55;;;;;;;13.80;10.67;;;3.90;44.00;;;;;;10415142;28;20283;-71
2021/11/24 09:56:58;;;;;;;12.83;9.93;;;3.90;43.80;;;;;;10419043;28;20240;-71
2021/11/24 10:02:04;;;;;;;13.30;10.23;;;4.00;43.80;;;;;;10420360;28;20237;-71
2021/11/24 10:07:10;;;;;;;12.80;10.20;;;4.10;44.10;;;;;;10409948;28;20265;-71
2021/11/24 10:12:14;;;;;;;13.20;9.97;;;4.20;44.10;;;;;;10418590;28;20228;-71
2021/11/24 10:17:23;;;;;;;14.10;10.20;;;4.20;43.90;;;;;;10415199;28;20705;-71
2021/11/24 10:22:26;;;;;;;14.50;11.10;;;4.30;44.50;;;;;;10419498;28;20237;-72
2021/11/24 10:27:36;;;;;;;14.30;10.97;;;4.30;44.00;;;;;;10421562;28;20759;-70
2021/11/24 10:32:51;;;;;;;13.33;10.33;;;4.40;44.60;;;;;;10415176;28;20232;-71
2021/11/24 10:38:13;;;;;;;14.13;10.57;;;4.40;44.30;;;;;;10417000;28;20224;-71
2021/11/24 10:43:18;;;;;;;13.03;10.97;;;4.50;44.90;;;;;;10418635;28;20231;-71
2021/11/24 10:48:27;;;;;;;13.07;10.00;;;4.70;44.30;;;;;;10418441;28;20225;-71
2021/11/24 10:53:31;;;;;;;12.00;9.63;;;4.70;44.60;;;;;;10422704;28;20260;-71
2021/11/24 10:58:38;;;;;;;11.40;9.60;;;4.80;44.20;;;;;;10419792;28;20584;-71
2021/11/24 11:03:44;;;;;;;13.43;11.00;;;4.80;44.10;;;;;;10427368;28;20239;-71
2021/11/24 11:08:57;;;;;;;14.57;11.33;;;4.90;44.40;;;;;;10426223;28;20253;-71
2021/11/24 11:14:17;;;;;;;14.70;10.90;;;5.00;44.80;;;;;;10426574;28;20225;-71
2021/11/24 11:19:41;;;;;;;12.67;10.70;;;5.10;45.00;;;;;;10424417;28;20227;-71
2021/11/24 11:24:45;;;;;;;13.67;11.23;;;5.10;45.00;;;;;;10415469;28;20233;-71
2021/11/24 11:29:48;;;;;;;13.83;11.17;;;5.20;44.20;;;;;;10421545;28;20245;-71
2021/11/24 11:34:53;;;;;;;13.17;11.07;;;5.20;44.00;;;;;;10420397;28;20649;-70
2021/11/24 11:39:56;;;;;;;13.07;11.00;;;5.30;44.40;;;;;;10421805;28;20234;-70
2021/11/24 11:45:06;;;;;;;11.60;10.10;;;5.30;44.10;;;;;;10427185;28;20248;-71
2021/11/24 11:50:49;;;;;;;12.47;9.63;;;5.40;44.70;;;;;;10426459;28;20225;-71
2021/11/24 11:56:20;;;;;;;11.40;9.97;;;5.40;44.70;;;;;;10420982;28;20239;-70
2021/11/24 12:01:26;;;;;;;10.37;9.17;;;5.50;45.10;;;;;;10426153;28;20232;-70
2021/11/24 12:06:34;;;;;;;11.47;9.77;;;5.50;44.40;;;;;;10422840;28;20232;-70
2021/11/24 12:12:21;;;;;;;11.57;10.47;;;5.60;44.50;;;;;;10411479;28;20230;-70
2021/11/24 12:17:40;;;;;;;12.10;10.27;;;5.70;44.60;;;;;;10420748;28;20595;-70
2021/11/24 12:22:55;;;;;;;13.87;12.40;;;5.80;44.40;;;;;;10423340;28;20315;-70
2021/11/24 12:28:06;;;;;;;12.30;10.87;;;5.80;44.30;;;;;;10424057;28;20225;-70
2021/11/24 12:33:12;;;;;;;13.23;11.93;;;5.80;44.30;;;;;;10418359;28;20703;-70
2021/11/24 12:38:18;;;;;;;11.07;9.97;;;5.80;44.00;;;;;;10420752;28;20236;-70
2021/11/24 12:43:24;;;;;;;9.63;8.63;;;5.90;44.20;;;;;;10421614;28;20243;-70
2021/11/24 12:48:31;;;;;;;10.67;9.57;;;5.90;44.10;;;;;;10419431;28;20603;-70
2021/11/24 12:53:42;;;;;;;10.80;8.70;;;6.00;44.10;;;;;;10412494;28;20240;-70
2021/11/24 12:59:03;;;;;;;10.87;9.63;;;6.00;43.80;;;;;;10414494;28;20233;-70
2021/11/24 13:04:10;;;;;;;10.50;9.13;;;6.10;43.90;;;;;;10402268;28;20252;-69
2021/11/24 13:09:17;;;;;;;10.30;8.87;;;6.10;43.90;;;;;;10418759;28;20230;-70
2021/11/24 13:14:38;;;;;;;9.13;8.20;;;6.10;43.70;;;;;;10420132;28;20279;-70
2021/11/24 13:19:51;;;;;;;9.93;8.93;;;6.10;43.60;;;;;;10425233;28;20330;-70
2021/11/24 13:25:01;;;;;;;10.73;9.47;;;6.10;43.80;;;;;;10418026;28;20294;-70
2021/11/24 13:30:05;;;;;;;10.50;8.10;;;6.10;43.90;;;;;;10412319;28;20729;-70
2021/11/24 13:35:09;;;;;;;9.60;8.60;;;6.20;43.70;;;;;;10419024;28;20259;-70
2021/11/24 13:40:32;;;;;;;8.10;7.30;;;6.20;43.70;;;;;;10419924;28;20225;-70
2021/11/24 13:45:37;;;;;;;9.03;8.13;;;6.20;43.70;;;;;;10420338;28;20235;-70
2021/11/24 13:50:41;;;;;;;8.77;7.87;;;6.20;43.70;;;;;;10422541;28;20232;-70
2021/11/24 13:55:45;;;;;;;9.90;8.50;;;6.30;43.80;;;;;;10418729;28;20319;-74
2021/11/24 14:00:49;;;;;;;9.60;8.10;;;6.30;43.70;;;;;;10413987;28;20776;-73
2021/11/24 14:05:52;;;;;;;9.13;7.97;;;6.30;43.50;;;;;;10418289;28;20229;-73
2021/11/24 14:10:57;;;;;;;8.87;7.97;;;6.40;43.50;;;;;;10412925;28;20896;-73
2021/11/24 14:16:09;;;;;;;9.77;8.80;;;6.40;43.40;;;;;;10418218;28;20637;-73
2021/11/24 14:21:12;;;;;;;11.53;9.03;;;6.40;43.50;;;;;;10418120;28;20230;-73
2021/11/24 14:26:17;;;;;;;10.53;9.30;;;6.40;43.40;;;;;;10418531;28;20248;-74
2021/11/24 14:31:20;;;;;;;9.90;8.90;;;6.50;43.50;;;;;;10414654;28;20229;-74
2021/11/24 14:36:26;;;;;;;10.20;8.43;;;6.50;43.40;;;;;;10418549;28;20233;-73
2021/11/24 14:41:30;;;;;;;9.30;8.30;;;6.50;43.50;;;;;;10424781;28;20695;-74
2021/11/24 14:46:33;;;;;;;10.03;9.03;;;6.50;43.40;;;;;;10419573;28;20589;-73
2021/11/24 14:51:37;;;;;;;10.33;9.17;;;6.50;43.30;;;;;;10419675;28;20279;-75
2021/11/24 14:56:42;;;;;;;12.23;10.60;;;6.60;43.40;;;;;;10424749;28;20225;-74
2021/11/24 15:01:46;;;;;;;11.67;10.47;;;6.60;43.30;;;;;;10421093;28;20236;-74
2021/11/24 15:06:50;;;;;;;9.77;8.77;;;6.60;43.20;;;;;;10425984;28;20264;-74
2021/11/24 15:11:54;;;;;;;9.57;8.57;;;6.50;43.10;;;;;;10425342;28;20488;-74
2021/11/24 15:16:57;;;;;;;9.23;8.23;;;6.50;43.10;;;;;;10417094;28;20229;-75
2021/11/24 15:22:01;;;;;;;8.63;7.67;;;6.50;43.10;;;;;;10415706;28;20248;-74
2021/11/24 15:27:06;;;;;;;7.97;7.27;;;6.50;43.10;;;;;;10415087;28;20637;-74
2021/11/24 15:32:09;;;;;;;8.23;7.43;;;6.50;43.20;;;;;;10418528;28;20233;-74
2021/11/24 15:37:14;;;;;;;8.17;7.37;;;6.50;43.10;;;;;;10428984;28;20748;-74
2021/11/24 15:42:18;;;;;;;10.90;7.67;;;6.50;43.20;;;;;;10421210;28;20233;-74
2021/11/24 15:47:24;;;;;;;8.30;7.40;;;6.50;43.10;;;;;;10424663;28;20240;-74
2021/11/24 15:52:27;;;;;;;9.27;7.70;;;6.60;43.10;;;;;;10424614;28;20231;-74
2021/11/24 15:57:32;;;;;;;9.90;8.87;;;6.60;43.10;;;;;;10423470;28;20257;-74
2021/11/24 16:02:39;;;;;;;11.17;10.03;;;6.60;43.00;;;;;;10424825;28;20314;-70
2021/11/24 16:07:43;;;;;;;9.23;8.30;;;6.60;43.00;;;;;;10421161;28;20233;-74
2021/11/24 16:12:48;;;;;;;10.80;9.80;;;6.60;43.00;;;;;;10414894;28;20221;-74
2021/11/24 16:17:51;;;;;;;8.87;7.67;;;6.60;43.00;;;;;;10421824;28;20261;-68
2021/11/24 16:22:55;;;;;;;10.07;8.70;;;6.60;44.00;;;;;;10422536;28;20229;-71
2021/11/24 16:27:59;;;;;;;9.10;8.20;;;6.70;44.40;;;;;;10426577;28;20598;-71
2021/11/24 16:33:03;;;;;;;9.53;8.63;;;6.80;44.30;;;;;;10422430;28;21499;-71
2021/11/24 16:38:06;;;;;;;9.90;8.90;;;6.90;43.90;;;;;;10418695;28;20240;-71
2021/11/24 16:43:11;;;;;;;10.90;9.80;;;6.90;43.40;;;;;;10415766;28;20735;-71
2021/11/24 16:48:20;;;;;;;11.73;10.53;;;7.00;43.30;;;;;;10420967;28;20229;-71
2021/11/24 16:53:23;;;;;;;9.73;8.57;;;7.00;43.20;;;;;;10421853;28;20241;-73
2021/11/24 16:58:27;;;;;;;9.13;8.23;;;7.00;43.10;;;;;;10419249;28;20229;-71
2021/11/24 17:03:31;;;;;;;9.57;7.60;;;7.00;42.90;;;;;;10418864;28;20233;-70
2021/11/24 17:08:35;;;;;;;8.33;7.53;;;7.00;42.90;;;;;;10416188;28;20236;-70
2021/11/24 17:13:39;;;;;;;8.67;7.87;;;6.90;42.70;;;;;;10420813;28;20236;-70
2021/11/24 17:18:42;;;;;;;8.90;8.00;;;6.90;42.70;;;;;;10419990;28;20600;-71
2021/11/24 17:23:46;;;;;;;8.83;7.97;;;6.90;42.70;;;;;;10420045;28;20794;-70
2021/11/24 17:28:50;;;;;;;8.90;8.10;;;6.90;42.70;;;;;;10421072;28;20221;-70
2021/11/24 17:33:54;;;;;;;10.00;9.00;;;6.80;42.80;;;;;;10418359;28;20226;-70
2021/11/24 17:38:57;;;;;;;9.07;8.17;;;6.80;42.80;;;;;;10424258;28;20604;-70
2021/11/24 17:44:02;;;;;;;16.33;12.77;;;6.80;42.80;;;;;;10423334;28;20233;-71
2021/11/24 17:49:10;;;;;;;11.63;10.43;;;6.70;42.80;;;;;;10419661;28;20803;-71
2021/11/24 17:54:15;;;;;;;12.43;10.20;;;6.70;42.70;;;;;;10422715;28;20229;-70
2021/11/24 17:59:20;;;;;;;11.10;9.67;;;6.70;42.70;;;;;;10416637;28;20232;-71
2021/11/24 18:04:24;;;;;;;10.50;9.47;;;6.70;42.70;;;;;;10419214;28;20240;-71
2021/11/24 18:09:27;;;;;;;12.67;9.87;;;6.70;43.40;;;;;;10417806;28;20291;-69
2021/11/24 18:14:34;;;;;;;10.80;9.70;;;6.70;42.70;;;;;;10420643;28;20257;-70
2021/11/24 18:19:37;;;;;;;10.90;9.80;;;6.60;42.80;;;;;;10422815;28;20611;-70
2021/11/24 18:24:41;;;;;;;12.43;11.13;;;6.60;42.70;;;;;;10415018;28;20229;-70
2021/11/24 18:29:46;;;;;;;14.07;12.10;;;6.60;42.70;;;;;;10422747;28;20704;-70
2021/11/24 18:34:49;;;;;;;16.13;13.10;;;6.60;42.80;;;;;;10422110;28;20237;-70
2021/11/24 18:39:52;;;;;;;14.47;12.97;;;6.60;42.70;;;;;;10421482;28;20588;-71
2021/11/24 18:45:09;;;;;;;13.73;11.97;;;6.60;42.70;;;;;;10417216;28;20284;-71
2021/11/24 18:50:13;;;;;;;14.03;12.50;;;6.60;42.70;;;;;;10414587;28;20236;-71
2021/11/24 18:55:18;;;;;;;12.80;11.37;;;6.60;42.80;;;;;;10417798;28;20307;-71
2021/11/24 19:00:23;;;;;;;13.27;10.97;;;6.50;42.80;;;;;;10417325;28;20682;-70
2021/11/24 19:05:26;;;;;;;12.40;10.93;;;6.50;43.60;;;;;;10417758;28;20233;-71
2021/11/24 19:10:34;;;;;;;11.83;10.63;;;6.50;42.90;;;;;;10414971;28;20225;-71
2021/11/24 19:15:40;;;;;;;12.80;11.50;;;6.60;43.00;;;;;;10408395;28;20717;-71
2021/11/24 19:20:43;;;;;;;12.80;10.77;;;6.50;42.90;;;;;;10420636;28;20705;-71
2021/11/24 19:25:47;;;;;;;13.57;12.13;;;6.50;42.90;;;;;;10419467;28;20230;-71
2021/11/24 19:30:53;;;;;;;12.03;10.83;;;6.50;42.90;;;;;;10428210;28;20241;-71
2021/11/24 19:35:57;;;;;;;11.73;10.50;;;6.50;42.80;;;;;;10424362;28;20638;-71
2021/11/24 19:41:02;;;;;;;12.83;11.17;;;6.50;42.90;;;;;;10424273;28;20240;-71
2021/11/24 19:46:11;;;;;;;13.70;11.70;;;6.50;42.80;;;;;;10418270;28;20237;-71
2021/11/24 19:51:15;;;;;;;12.57;11.27;;;6.50;43.00;;;;;;10421838;28;20253;-71
2021/11/24 19:56:20;;;;;;;13.57;12.17;;;6.50;43.00;;;;;;10424818;28;20229;-74
2021/11/24 20:01:25;;;;;;;13.17;11.67;;;6.50;43.10;;;;;;10404377;28;20240;-74
2021/11/24 20:06:29;;;;;;;11.87;10.60;;;6.50;43.00;;;;;;10415568;28;20234;-74
2021/11/24 20:11:32;;;;;;;12.83;11.50;;;6.50;43.00;;;;;;10421077;28;20319;-74
2021/11/24 20:16:37;;;;;;;13.23;11.77;;;6.50;43.00;;;;;;10412816;28;20342;-74
2021/11/24 20:21:40;;;;;;;14.00;12.13;;;6.50;43.10;;;;;;10421899;28;20233;-74
2021/11/24 20:26:44;;;;;;;17.23;14.67;;;6.50;43.20;;;;;;10421877;28;20234;-74
2021/11/24 20:31:49;;;;;;;15.23;13.70;;;6.50;43.10;;;;;;10424168;28;20250;-74
2021/11/24 20:36:53;;;;;;;15.63;14.03;;;6.50;43.20;;;;;;10423883;28;20235;-74
2021/11/24 20:41:56;;;;;;;12.93;10.97;;;6.50;43.20;;;;;;10425779;28;20874;-73
2021/11/24 20:47:02;;;;;;;12.33;11.13;;;6.50;43.20;;;;;;10423894;28;20236;-74
2021/11/24 20:52:06;;;;;;;13.63;11.97;;;6.50;43.20;;;;;;10421782;28;20255;-74
2021/11/24 20:57:09;;;;;;;13.80;12.43;;;6.40;43.20;;;;;;10424125;28;20245;-73
2021/11/24 21:02:16;;;;;;;15.17;13.67;;;6.50;43.40;;;;;;10424267;28;20243;-73
2021/11/24 21:07:20;;;;;;;17.13;15.43;;;6.50;43.20;;;;;;10427328;28;20238;-74
2021/11/24 21:12:23;;;;;;;16.60;14.90;;;6.50;43.00;;;;;;10423746;28;20243;-74
2021/11/24 21:17:29;;;;;;;16.30;14.30;;;6.40;42.80;;;;;;10427297;28;20240;-70
2021/11/24 21:22:33;;;;;;;14.60;13.13;;;6.40;42.90;;;;;;10417920;28;20579;-70
2021/11/24 21:27:37;;;;;;;15.97;14.37;;;6.40;43.00;;;;;;10417313;28;20234;-70
2021/11/24 21:32:42;;;;;;;14.97;13.53;;;6.30;42.90;;;;;;10415054;28;20518;-70
2021/11/24 21:37:46;;;;;;;15.80;14.37;;;6.30;43.00;;;;;;10420800;28;20720;-70
2021/11/24 21:42:51;;;;;;;15.00;13.50;;;6.20;43.00;;;;;;10423128;28;20264;-70
2021/11/24 21:47:56;;;;;;;16.53;14.93;;;6.30;43.20;;;;;;10424161;28;20646;-70
2021/11/24 21:53:00;;;;;;;16.33;14.63;;;6.30;43.20;;;;;;10423139;28;20233;-70
2021/11/24 21:58:03;;;;;;;15.73;14.23;;;6.30;43.10;;;;;;10427563;28;20626;-73
2021/11/24 22:03:07;;;;;;;16.40;14.80;;;6.30;43.00;;;;;;10420047;28;20228;-73
2021/11/24 22:13:33;;;;;;;16.70;14.93;;;6.20;43.00;;;;;;10424365;28;20237;-74
2021/11/24 22:18:37;;;;;;;17.07;15.27;;;6.10;43.00;;;;;;10418767;28;20616;-73
2021/11/24 22:23:40;;;;;;;16.87;15.27;;;6.20;43.00;;;;;;10419005;28;20233;-73
2021/11/24 22:28:44;;;;;;;17.27;15.60;;;6.10;42.90;;;;;;10422104;28;20725;-73
2021/11/24 22:33:48;;;;;;;18.10;16.37;;;6.10;43.10;;;;;;10414158;28;20239;-73
2021/11/24 22:38:51;;;;;;;18.13;16.47;;;6.20;43.10;;;;;;10425056;28;20235;-73
2021/11/24 22:43:55;;;;;;;19.10;17.20;;;6.20;43.00;;;;;;10424243;28;20251;-73
2021/11/24 22:49:00;;;;;;;20.30;18.30;;;6.20;43.00;;;;;;10414841;28;20279;-73
2021/11/24 22:54:04;;;;;;;20.53;18.53;;;6.20;42.90;;;;;;10418400;28;20237;-73
2021/11/24 22:59:07;;;;;;;20.73;18.73;;;6.20;43.00;;;;;;10426340;28;20229;-71
2021/11/24 23:04:12;;;;;;;20.87;18.77;;;6.10;42.80;;;;;;10421155;28;20602;-73
2021/11/24 23:09:17;;;;;;;21.03;18.97;;;6.10;42.90;;;;;;10426915;28;20766;-73
2021/11/24 23:14:20;;;;;;;21.53;19.40;;;6.10;43.00;;;;;;10422951;28;20743;-73
2021/11/24 23:19:25;;;;;;;21.43;19.43;;;6.10;42.90;;;;;;10416495;28;20228;-70
2021/11/24 23:24:28;;;;;;;22.17;20.07;;;6.10;42.90;;;;;;10423842;28;20598;-70
2021/11/24 23:29:32;;;;;;;21.37;19.37;;;6.00;42.80;;;;;;10421801;28;20473;-70
2021/11/24 23:34:36;;;;;;;21.43;19.37;;;6.00;42.90;;;;;;10423827;28;20240;-70
2021/11/24 23:39:46;;;;;;;21.43;19.37;;;6.00;42.80;;;;;;10420091;28;20228;-70
2021/11/24 23:44:49;;;;;;;22.30;20.17;;;5.90;42.80;;;;;;10423973;28;20229;-69
2021/11/24 23:49:54;;;;;;;20.83;18.87;;;6.00;43.00;;;;;;10425908;28;20224;-73
2021/11/24 23:54:57;;;;;;;20.10;18.20;;;5.90;43.00;;;;;;10421228;28;20225;-75
